Time;durP1;ratioP1;P1;durP2;ratioP2;P2;SDS_P1;SDS_P2;PMS_P1;PMS_P2;Temp;Humidity;BMP_temperature;BMP_pressure;BME280_temperature;BME280_humidity;BME280_pressure;Samples;Min_cycle;Max_cycle;Signal;HPM_P1;HPM_P2
2022/02/21 00:00:50;;;;;;;;;39.67;35.00;;;;;6.13;90.92;99186.00;6313505;20;3606504;-46
2022/02/21 00:03:21;;;;;;;;;41.33;36.67;;;;;6.30;90.35;99189.59;6313479;20;3616045;-45
2022/02/21 00:05:52;;;;;;;;;44.33;37.33;;;;;6.01;91.40;99183.09;6309197;20;3613944;-44
2022/02/21 00:08:21;;;;;;;;;42.33;37.00;;;;;6.29;90.84;99186.06;6313249;20;2858781;-45
2022/02/21 00:10:51;;;;;;;;;39.33;34.00;;;;;6.65;91.74;99185.03;6314368;20;2861808;-47
2022/02/21 00:13:20;;;;;;;;;44.33;36.00;;;;;6.50;89.72;99188.53;6314040;20;2866027;-46
2022/02/21 00:15:50;;;;;;;;;39.33;33.67;;;;;6.51;89.55;99183.13;6308447;20;2862973;-44
2022/02/21 00:18:19;;;;;;;;;40.67;37.00;;;;;6.49;89.06;99184.16;6312038;20;2858646;-44
2022/02/21 00:20:48;;;;;;;;;40.50;37.00;;;;;6.42;89.25;99183.59;6312358;20;2881621;-46
2022/02/21 00:23:16;;;;;;;;;30.50;24.50;;;;;6.05;91.00;99174.00;6282579;20;2844014;-44
2022/02/21 00:25:45;;;;;;;;;45.33;36.67;;;;;6.18;90.59;99185.75;6283361;20;2878443;-44
2022/02/21 00:28:14;;;;;;;;;40.00;33.50;;;;;6.21;90.94;99171.38;6310171;20;2852367;-50
2022/02/21 00:30:43;;;;;;;;;36.00;36.00;;;;;6.19;90.83;99176.81;6282851;20;2858578;-44
2022/02/21 00:33:13;;;;;;;;;38.67;32.00;;;;;6.25;90.65;99173.81;6279826;20;2864886;-46
2022/02/21 00:35:42;;;;;;;;;35.33;34.33;;;;;6.17;91.35;99168.03;6311900;20;2868055;-45
2022/02/21 00:38:12;;;;;;;;;40.00;33.67;;;;;6.11;90.78;99158.56;6312735;20;2846308;-46
2022/02/21 00:40:42;;;;;;;;;37.33;34.00;;;;;6.21;90.71;99148.25;6311520;20;2860794;-44
2022/02/21 00:43:11;;;;;;;;;45.67;33.00;;;;;5.97;92.15;99145.06;6310830;20;3615884;-44
2022/02/21 00:45:40;;;;;;;;;42.50;37.00;;;;;6.36;91.81;99142.13;6312849;20;2848216;-45
2022/02/21 00:48:09;;;;;;;;;28.50;28.50;;;;;6.21;90.86;99137.59;6278636;20;2841007;-45
2022/02/21 00:50:38;;;;;;;;;36.50;32.50;;;;;6.16;90.95;99136.97;6283384;20;2843996;-49
2022/02/21 00:53:07;;;;;;;;;38.00;34.33;;;;;6.07;91.07;99125.00;6280398;20;2864944;-45
2022/02/21 00:55:36;;;;;;;;;36.50;34.00;;;;;6.10;90.60;99129.31;6307351;20;2852336;-46
2022/02/21 00:58:05;;;;;;;;;41.00;34.50;;;;;6.05;90.95;99120.69;6275368;20;2500251;-48
2022/02/21 01:00:34;;;;;;;;;32.50;30.00;;;;;5.86;91.75;99116.28;6278752;20;2834728;-44
2022/02/21 01:03:46;;;;;;;;;33.00;30.00;;;;;6.02;92.21;99108.38;6282112;20;2841948;-44
2022/02/21 01:06:17;;;;;;;;;42.50;34.50;;;;;5.80;92.19;99099.78;6281279;20;2854844;-47
2022/02/21 01:08:46;;;;;;;;;37.00;31.50;;;;;5.93;92.07;99096.41;6280873;20;2859627;-45
2022/02/21 01:11:16;;;;;;;;;43.33;30.00;;;;;5.68;93.49;99085.25;6280335;20;2860705;-44
2022/02/21 01:13:44;;;;;;;;;30.00;28.00;;;;;5.72;93.66;99081.50;6310551;20;2730458;-45
2022/02/21 01:16:13;;;;;;;;;32.50;26.50;;;;;5.55;94.03;99074.38;6309082;20;2855595;-44
2022/02/21 01:18:42;;;;;;;;;36.00;30.00;;;;;5.46;94.26;99075.72;6278288;20;2840867;-45
2022/02/21 01:21:11;;;;;;;;;44.00;35.33;;;;;5.70;94.15;99062.94;6290734;20;3622122;-45
2022/02/21 01:23:41;;;;;;;;;36.00;33.67;;;;;5.46;94.66;99081.03;6311820;20;2858738;-45
2022/02/21 01:26:10;;;;;;;;;33.50;32.00;;;;;5.49;94.73;99072.88;6311370;20;2845096;-45
2022/02/21 01:28:39;;;;;;;;;41.00;35.50;;;;;5.66;95.89;99061.41;6279033;20;2852439;-45
2022/02/21 01:31:09;;;;;;;;;46.67;35.33;;;;;5.70;96.64;99054.09;6279054;20;3616939;-44
2022/02/21 01:33:38;;;;;;;;;44.33;37.00;;;;;5.23;96.32;99044.91;6316914;20;3632534;-46
2022/02/21 01:36:07;;;;;;;;;36.50;35.00;;;;;5.24;96.93;99032.50;6315049;20;2854410;-46
2022/02/21 01:38:37;;;;;;;;;44.67;37.67;;;;;5.44;96.36;99040.31;6285064;20;2865944;-45
2022/02/21 01:41:07;;;;;;;;;43.33;32.00;;;;;5.38;96.77;99040.63;6316022;20;3612844;-44
2022/02/21 01:43:36;;;;;;;;;53.50;42.00;;;;;5.57;96.08;99034.38;6317220;20;2856505;-45
2022/02/21 01:46:06;;;;;;;;;53.33;41.33;;;;;5.47;96.19;99034.81;6284898;20;3629390;-45
2022/02/21 01:48:34;;;;;;;;;41.00;36.00;;;;;5.46;96.71;99021.59;6316807;20;2855448;-44
2022/02/21 01:51:03;;;;;;;;;40.50;37.50;;;;;5.39;95.89;99014.88;6283338;20;2853452;-44
2022/02/21 01:53:32;;;;;;;;;32.50;27.50;;;;;5.16;98.13;99010.69;6284915;20;2859665;-45
2022/02/21 01:56:04;;;;;;;;;45.67;36.67;;;;;5.37;97.53;99008.75;6284479;20;2882673;-45
2022/02/21 01:58:33;;;;;;;;;43.50;39.00;;;;;5.28;98.17;99007.44;6314159;20;2869086;-47
2022/02/21 02:01:02;;;;;;;;;36.33;30.67;;;;;5.16;98.37;98998.28;6284286;20;3612780;-46
2022/02/21 02:03:32;;;;;;;;;41.67;34.67;;;;;5.28;97.98;98996.78;6316718;20;2872231;-45
2022/02/21 02:06:02;;;;;;;;;33.33;25.00;;;;;5.35;98.27;98992.03;6316849;20;2856538;-48
2022/02/21 02:08:30;;;;;;;;;32.50;28.50;;;;;5.31;97.76;98980.66;6312661;20;2845143;-46
2022/02/21 02:11:00;;;;;;;;;33.00;29.00;;;;;5.28;98.13;98970.16;6282081;20;2853429;-46
2022/02/21 02:13:29;;;;;;;;;43.00;35.50;;;;;5.30;98.20;98968.31;6284295;20;2861742;-43
2022/02/21 02:15:58;;;;;;;;;35.00;31.00;;;;;5.50;99.82;98952.16;6285029;20;2838784;-47
2022/02/21 02:18:26;;;;;;;;;41.50;33.00;;;;;5.28;98.13;98943.56;6284113;20;2862950;-46
2022/02/21 02:20:56;;;;;;;;;49.33;38.67;;;;;5.20;99.12;98940.44;6284316;20;3624178;-45
2022/02/21 02:23:26;;;;;;;;;48.00;38.33;;;;;5.14;99.43;98930.13;6314985;20;2861772;-44
2022/02/21 02:25:53;;;;;;;;;35.00;28.50;;;;;4.95;99.63;98923.09;6310262;20;2500787;-45
2022/02/21 02:28:25;;;;;;;;;41.67;36.67;;;;;4.85;99.76;98921.81;6283501;20;3618988;-44
2022/02/21 02:30:55;;;;;;;;;53.33;37.33;;;;;4.98;100.00;98919.41;6313836;20;3645444;-44
2022/02/21 02:33:24;;;;;;;;;46.00;33.33;;;;;5.23;100.00;98914.50;6314595;20;3626271;-46
2022/02/21 02:35:53;;;;;;;;;46.00;35.00;;;;;5.33;99.11;98922.03;6314075;20;2870171;-44
2022/02/21 02:38:22;;;;;;;;;41.50;37.00;;;;;4.82;100.00;98908.69;6283319;20;2846210;-44
2022/02/21 02:40:50;;;;;;;;;47.00;38.50;;;;;4.84;100.00;98904.13;6280383;20;2862838;-45
2022/02/21 02:43:19;;;;;;;;;52.50;42.50;;;;;5.01;100.00;98900.63;6282233;20;2851440;-45
2022/02/21 02:45:49;;;;;;;;;45.00;39.00;;;;;4.80;100.00;98897.25;6284347;20;3617939;-45
2022/02/21 02:48:17;;;;;;;;;53.50;42.00;;;;;4.89;100.00;98896.78;6314964;20;2864892;-44
2022/02/21 02:50:46;;;;;;;;;41.00;36.00;;;;;4.96;100.00;98890.22;6279336;20;2500276;-46
2022/02/21 02:53:15;;;;;;;;;33.50;33.50;;;;;4.93;100.00;98893.03;6284201;20;2850281;-45
2022/02/21 02:55:44;;;;;;;;;48.00;39.00;;;;;4.92;100.00;98878.00;6283433;20;2875455;-45
2022/02/21 02:58:13;;;;;;;;;31.00;27.00;;;;;4.89;100.00;98878.16;6282281;20;2840876;-46
2022/02/21 03:00:41;;;;;;;;;52.00;40.50;;;;;5.05;100.00;98873.78;6280365;20;2521229;-46
2022/02/21 03:03:10;;;;;;;;;48.33;37.67;;;;;5.06;100.00;98879.97;6280214;20;2876428;-44
2022/02/21 03:05:40;;;;;;;;;49.67;39.33;;;;;4.98;100.00;98883.03;6314994;20;2866989;-46
2022/02/21 03:08:09;;;;;;;;;47.00;39.00;;;;;4.97;100.00;98886.59;6311292;20;3628350;-45
2022/02/21 03:10:39;;;;;;;;;49.00;38.00;;;;;4.72;100.00;98870.19;6314335;20;2877498;-45
2022/02/21 03:13:08;;;;;;;;;59.50;44.50;;;;;4.91;100.00;98868.31;6314990;20;2863786;-44
2022/02/21 03:15:36;;;;;;;;;51.00;41.50;;;;;4.84;100.00;98864.22;6283706;20;2841928;-43
2022/02/21 03:18:05;;;;;;;;;45.50;41.00;;;;;4.63;100.00;98866.19;6282098;20;2858965;-47
2022/02/21 03:20:33;;;;;;;;;56.00;40.00;;;;;4.84;100.00;98870.44;6280848;20;2492995;-45
2022/02/21 03:23:02;;;;;;;;;51.50;40.00;;;;;4.72;100.00;98860.41;6282699;20;2860699;-45
2022/02/21 03:25:31;;;;;;;;;44.00;37.50;;;;;4.54;100.00;98856.03;6283684;20;2857563;-45
2022/02/21 03:28:01;;;;;;;;;54.67;40.33;;;;;4.60;100.00;98845.94;6282872;20;2857617;-46
2022/02/21 03:30:30;;;;;;;;;54.50;41.50;;;;;4.47;100.00;98850.16;6312977;20;2863820;-44
2022/02/21 03:33:01;;;;;;;;;57.67;43.67;;;;;4.38;100.00;98856.78;6282129;20;2862760;-44
2022/02/21 03:35:30;;;;;;;;;51.00;43.50;;;;;4.57;100.00;98854.06;6309172;20;2849348;-47
2022/02/21 03:37:59;;;;;;;;;53.50;41.50;;;;;4.32;100.00;98850.94;6281522;20;2851285;-46
2022/02/21 03:40:28;;;;;;;;;55.00;42.50;;;;;4.35;100.00;98846.31;6277495;20;2869073;-47
2022/02/21 03:42:58;;;;;;;;;55.50;42.50;;;;;4.55;100.00;98839.13;6283621;20;2874197;-46
2022/02/21 03:45:27;;;;;;;;;44.00;38.00;;;;;4.46;100.00;98832.50;6282497;20;2841910;-44
2022/02/21 03:47:55;;;;;;;;;54.00;42.00;;;;;4.44;100.00;98833.50;6283102;20;2864998;-48
2022/02/21 03:50:23;;;;;;;;;59.00;44.50;;;;;4.52;100.00;98816.22;6277854;20;2492962;-45
2022/02/21 03:52:54;;;;;;;;;55.00;44.00;;;;;4.46;100.00;98805.91;6283051;20;2852487;-46
2022/02/21 03:55:23;;;;;;;;;65.67;50.00;;;;;4.54;100.00;98774.47;6280597;20;2884683;-48
2022/02/21 03:57:52;;;;;;;;;55.50;44.00;;;;;4.31;100.00;98735.78;6311472;20;2847169;-45
2022/02/21 04:00:21;;;;;;;;;55.50;43.50;;;;;4.21;100.00;98746.97;6280231;20;2868025;-45
2022/02/21 04:02:50;;;;;;;;;59.00;43.00;;;;;4.44;100.00;98733.38;6283158;20;2873201;-44
2022/02/21 04:05:19;;;;;;;;;59.50;47.00;;;;;4.56;100.00;98738.06;6282706;20;2855457;-46
2022/02/21 04:07:47;;;;;;;;;58.00;46.00;;;;;4.61;100.00;98762.59;6280361;20;2865277;-45
2022/02/21 04:10:19;;;;;;;;;51.50;40.00;;;;;4.97;100.00;98784.66;6278756;20;2868003;-45
2022/02/21 04:12:47;;;;;;;;;61.00;47.00;;;;;4.92;100.00;98797.34;6278773;20;2491966;-44
2022/02/21 04:15:16;;;;;;;;;62.00;49.50;;;;;4.93;100.00;98794.63;6281133;20;2868088;-46
2022/02/21 04:17:52;;;;;;;;;66.00;48.33;;;;;5.03;100.00;98790.53;6279955;20;2891030;-44
2022/02/21 04:20:27;;;;;;;;;62.00;48.00;;;;;5.17;100.00;98796.91;6310822;20;2868713;-45
2022/02/21 04:22:56;;;;;;;;;64.50;49.00;;;;;5.04;99.95;98802.88;6312844;20;2875448;-47
2022/02/21 04:25:25;;;;;;;;;65.50;50.50;;;;;5.15;98.98;98812.09;6281891;20;2875246;-45
2022/02/21 04:27:56;;;;;;;;;66.00;49.33;;;;;5.37;99.00;98803.78;6281479;20;2875325;-44
2022/02/21 04:30:28;;;;;;;;;66.33;50.67;;;;;5.17;99.11;98813.72;6308705;20;2881564;-47
2022/02/21 04:32:58;;;;;;;;;64.33;50.33;;;;;5.13;100.00;98812.16;6311367;20;2872256;-46
2022/02/21 04:35:28;;;;;;;;;61.00;49.00;;;;;5.38;99.05;98813.53;6312761;20;2875325;-45
2022/02/21 04:37:57;;;;;;;;;63.67;48.67;;;;;5.02;99.19;98804.75;6310631;20;2862845;-44
2022/02/21 04:40:29;;;;;;;;;70.00;51.33;;;;;5.13;99.46;98805.97;6309568;20;3632511;-46
2022/02/21 04:42:59;;;;;;;;;69.67;51.67;;;;;4.99;99.79;98804.91;6313790;20;3624179;-45
2022/02/21 04:45:31;;;;;;;;;74.00;59.67;;;;;5.32;99.65;98811.16;6313213;20;2880627;-46
2022/02/21 04:48:00;;;;;;;;;80.00;58.33;;;;;5.18;99.48;98804.78;6312827;20;3648161;-45
2022/02/21 04:50:29;;;;;;;;;79.00;59.00;;;;;4.58;100.00;98797.31;6276393;20;2868104;-46
2022/02/21 04:52:59;;;;;;;;;74.33;55.00;;;;;4.40;100.00;98784.97;6278698;20;3636944;-47
2022/02/21 04:55:28;;;;;;;;;77.67;57.00;;;;;4.86;100.00;98784.38;6312571;20;2875345;-45
2022/02/21 04:57:58;;;;;;;;;87.67;60.00;;;;;4.93;100.00;98781.31;6310454;20;3656665;-45
2022/02/21 05:00:28;;;;;;;;;76.67;57.67;;;;;4.77;100.00;98767.97;6307099;20;2869337;-46
2022/02/21 05:02:58;;;;;;;;;82.00;59.67;;;;;4.57;100.00;98762.84;6307165;20;3642022;-46
2022/02/21 05:05:28;;;;;;;;;85.00;61.00;;;;;4.63;100.00;98765.16;6312603;20;3641879;-45
2022/02/21 05:07:57;;;;;;;;;77.67;57.33;;;;;4.32;100.00;98763.25;6316045;20;3631609;-45
2022/02/21 05:10:28;;;;;;;;;84.67;61.00;;;;;4.38;100.00;98770.91;6314377;20;3653494;-46
2022/02/21 05:12:58;;;;;;;;;86.00;60.00;;;;;4.46;100.00;98771.38;6316576;20;3656483;-46
2022/02/21 05:15:28;;;;;;;;;89.00;61.67;;;;;4.39;100.00;98764.63;6283116;20;3647090;-45
2022/02/21 05:17:58;;;;;;;;;86.00;63.67;;;;;4.64;100.00;98766.91;6313918;20;3655468;-45
2022/02/21 05:20:30;;;;;;;;;86.00;62.00;;;;;4.74;100.00;98761.94;6281851;20;3646045;-45
2022/02/21 05:23:01;;;;;;;;;88.67;60.67;;;;;4.89;100.00;98761.13;6313104;20;3642011;-44
2022/02/21 05:25:30;;;;;;;;;84.00;63.33;;;;;4.79;100.00;98754.56;6316378;20;3649194;-45
2022/02/21 05:28:00;;;;;;;;;91.33;65.33;;;;;4.81;100.00;98750.03;6315242;20;3660754;-48
2022/02/21 05:30:29;;;;;;;;;94.33;66.33;;;;;5.13;100.00;98745.66;6280469;20;3664854;-48
2022/02/21 05:32:59;;;;;;;;;88.67;61.00;;;;;5.11;100.00;98738.69;6316650;20;3646148;-47
2022/02/21 05:35:28;;;;;;;;;78.50;60.00;;;;;5.00;100.00;98747.25;6283853;20;2702344;-45
2022/02/21 05:37:57;;;;;;;;;88.00;61.33;;;;;5.23;100.00;98740.69;6314277;20;3649164;-45
2022/02/21 05:40:27;;;;;;;;;85.67;62.33;;;;;4.93;100.00;98741.41;6310418;20;3639801;-43
2022/02/21 05:42:56;;;;;;;;;93.00;61.67;;;;;4.90;100.00;98730.94;6314058;20;3651393;-46
2022/02/21 05:45:26;;;;;;;;;91.00;61.00;;;;;5.16;100.00;98732.19;6281005;20;3637755;-47
2022/02/21 05:47:56;;;;;;;;;94.33;62.67;;;;;5.16;100.00;98720.66;6315216;20;3658584;-45
2022/02/21 05:50:25;;;;;;;;;81.33;60.00;;;;;5.04;100.00;98719.56;6311307;20;3640872;-44
2022/02/21 05:52:55;;;;;;;;;91.00;64.33;;;;;5.22;100.00;98715.03;6314472;20;3658601;-52
2022/02/21 05:55:25;;;;;;;;;87.67;61.33;;;;;5.21;99.66;98703.53;6281199;20;3646124;-47
2022/02/21 05:57:59;;;;;;;;;89.00;63.00;;;;;4.98;100.00;98699.47;6283165;20;3653387;-48
2022/02/21 06:00:29;;;;;;;;;85.67;62.00;;;;;5.01;100.00;98691.31;6309446;20;3656990;-52
2022/02/21 06:02:59;;;;;;;;;94.33;62.67;;;;;5.12;100.00;98692.53;6283429;20;3663759;-50
2022/02/21 06:05:29;;;;;;;;;94.33;64.67;;;;;4.80;100.00;98689.84;6280159;20;3657491;-50
2022/02/21 06:07:58;;;;;;;;;97.00;64.67;;;;;4.72;100.00;98686.72;6283676;20;3655444;-52
2022/02/21 06:10:28;;;;;;;;;99.33;66.33;;;;;4.73;100.00;98673.34;6315018;20;3689813;-49
2022/02/21 06:12:58;;;;;;;;;95.00;65.00;;;;;4.73;100.00;98677.81;6285201;20;3665856;-50
2022/02/21 06:15:27;;;;;;;;;102.33;75.00;;;;;4.43;100.00;98673.19;6315008;20;3693969;-54
2022/02/21 06:17:58;;;;;;;;;94.33;68.33;;;;;4.49;100.00;98664.03;6281819;20;3676279;-53
2022/02/21 06:20:28;;;;;;;;;97.33;67.67;;;;;5.00;100.00;98651.50;6283253;20;3663843;-51
2022/02/21 06:22:58;;;;;;;;;93.67;63.33;;;;;4.78;100.00;98642.03;6285420;20;3679485;-52
2022/02/21 06:25:28;;;;;;;;;82.00;62.33;;;;;4.60;100.00;98638.56;6283129;20;3633682;-53
2022/02/21 06:27:57;;;;;;;;;93.33;65.00;;;;;4.68;100.00;98642.63;6314609;20;3646045;-51
2022/02/21 06:30:27;;;;;;;;;90.67;65.33;;;;;4.61;100.00;98640.31;6311539;20;3650221;-49
2022/02/21 06:32:56;;;;;;;;;93.50;66.00;;;;;4.55;100.00;98632.66;6313989;20;3612719;-52
2022/02/21 06:35:26;;;;;;;;;86.67;62.00;;;;;4.59;100.00;98626.25;6315579;20;3645141;-50
2022/02/21 06:37:59;;;;;;;;;95.00;67.00;;;;;4.78;100.00;98627.91;6281034;20;3668032;-50
2022/02/21 06:40:30;;;;;;;;;94.33;67.33;;;;;4.59;100.00;98615.59;6282951;20;3656506;-50
2022/02/21 06:43:01;;;;;;;;;87.67;64.00;;;;;4.56;100.00;98598.97;6283577;20;3643964;-53
2022/02/21 06:45:30;;;;;;;;;88.67;64.00;;;;;4.66;100.00;98599.31;6316337;20;3647083;-53
2022/02/21 06:47:59;;;;;;;;;80.00;60.00;;;;;4.73;100.00;98596.22;6315352;20;2762738;-52
2022/02/21 06:50:29;;;;;;;;;95.33;67.00;;;;;5.15;100.00;98608.06;6281300;20;3665834;-54
2022/02/21 06:52:59;;;;;;;;;88.67;63.00;;;;;4.98;100.00;98606.38;6282353;20;3661664;-52
2022/02/21 06:55:29;;;;;;;;;84.00;55.67;;;;;5.10;100.00;98603.97;6282996;20;3661683;-51
2022/02/21 06:57:57;;;;;;;;;75.00;53.50;;;;;4.94;100.00;98609.28;6282804;20;2609665;-53
2022/02/21 07:00:27;;;;;;;;;86.00;62.33;;;;;4.90;100.00;98613.03;6312736;20;3628356;-53
2022/02/21 07:02:57;;;;;;;;;86.00;62.00;;;;;4.69;100.00;98615.13;6316292;20;3653343;-53
2022/02/21 07:05:26;;;;;;;;;81.33;61.33;;;;;4.97;100.00;98625.91;6314719;20;3639832;-51
2022/02/21 07:07:56;;;;;;;;;87.33;60.00;;;;;4.84;100.00;98619.56;6314118;20;3659630;-52
2022/02/21 07:10:25;;;;;;;;;83.33;57.00;;;;;4.57;100.00;98606.00;6279700;20;3644125;-53
2022/02/21 07:12:54;;;;;;;;;86.00;63.33;;;;;4.70;100.00;98607.03;6316073;20;3647518;-51
2022/02/21 07:15:25;;;;;;;;;90.33;62.33;;;;;5.04;100.00;98597.19;6283816;20;3657535;-49
2022/02/21 07:17:55;;;;;;;;;86.00;64.00;;;;;4.88;100.00;98593.69;6280021;20;3655470;-51
2022/02/21 07:20:26;;;;;;;;;87.00;63.00;;;;;4.77;100.00;98588.97;6279970;20;3657677;-50
2022/02/21 07:22:56;;;;;;;;;87.00;63.00;;;;;4.84;100.00;98582.34;6280577;20;3666913;-52
2022/02/21 07:25:28;;;;;;;;;93.00;62.67;;;;;5.02;100.00;98573.31;6315427;20;3662779;-49
2022/02/21 07:27:58;;;;;;;;;92.33;64.67;;;;;5.25;100.00;98597.78;6280801;20;3656510;-48
2022/02/21 07:30:30;;;;;;;;;88.33;62.33;;;;;5.33;100.00;98606.16;6277642;20;3666896;-49
2022/02/21 07:33:00;;;;;;;;;91.67;64.67;;;;;5.11;100.00;98608.31;6283489;20;3656451;-51
2022/02/21 07:35:30;;;;;;;;;92.67;64.67;;;;;5.04;100.00;98600.69;6312681;20;3656464;-51
2022/02/21 07:38:00;;;;;;;;;83.67;60.00;;;;;5.37;100.00;98601.50;6314139;20;3664802;-47
2022/02/21 07:40:29;;;;;;;;;91.00;61.67;;;;;5.07;100.00;98592.53;6277018;20;3653370;-47
2022/02/21 07:42:59;;;;;;;;;92.67;64.67;;;;;5.43;100.00;98590.53;6310990;20;3665845;-48
2022/02/21 07:45:29;;;;;;;;;90.67;65.33;;;;;5.63;100.00;98587.53;6276501;20;3657516;-50
2022/02/21 07:48:03;;;;;;;;;90.67;64.67;;;;;5.29;100.00;98585.97;6311536;20;3653343;-52
2022/02/21 07:50:33;;;;;;;;;91.67;64.67;;;;;5.15;100.00;98580.59;6277446;20;3646186;-52
2022/02/21 07:53:03;;;;;;;;;94.00;63.00;;;;;5.32;100.00;98574.31;6313497;20;3667979;-54
2022/02/21 07:55:33;;;;;;;;;91.00;64.67;;;;;5.27;100.00;98570.13;6278511;20;3655412;-51
2022/02/21 07:58:02;;;;;;;;;95.33;66.67;;;;;5.26;100.00;98556.91;6313528;20;3676288;-52
2022/02/21 08:00:32;;;;;;;;;87.00;62.67;;;;;5.40;100.00;98546.31;6279509;20;3654485;-53
2022/02/21 08:03:02;;;;;;;;;92.00;64.67;;;;;5.41;100.00;98534.72;6281095;20;3650225;-52
2022/02/21 08:05:34;;;;;;;;;89.67;64.00;;;;;5.76;100.00;98547.72;6280145;20;3651285;-52
2022/02/21 08:08:07;;;;;;;;;96.00;65.00;;;;;5.69;100.00;98543.72;6278613;20;3662799;-51
2022/02/21 08:10:37;;;;;;;;;82.50;61.50;;;;;5.65;100.00;98547.50;6281970;20;3595007;-53
2022/02/21 08:13:06;;;;;;;;;79.33;55.67;;;;;5.88;100.00;98548.78;6312962;20;3648222;-53
2022/02/21 08:15:36;;;;;;;;;81.33;58.33;;;;;5.92;100.00;98532.53;6313672;20;3638899;-52
2022/02/21 08:18:06;;;;;;;;;87.33;60.33;;;;;5.58;100.00;98527.53;6313207;20;3631666;-53
2022/02/21 08:20:35;;;;;;;;;87.67;61.00;;;;;6.11;100.00;98520.78;6311511;20;3662778;-52
2022/02/21 08:23:05;;;;;;;;;79.67;58.00;;;;;6.27;100.00;98524.19;6278964;20;3637892;-50
2022/02/21 08:25:35;;;;;;;;;75.33;53.00;;;;;6.03;100.00;98531.91;6314444;20;3646206;-52
2022/02/21 08:28:05;;;;;;;;;80.33;58.00;;;;;6.57;98.98;98536.53;6310494;20;3641199;-51
2022/02/21 08:30:35;;;;;;;;;84.33;59.33;;;;;6.64;97.61;98532.53;6313724;20;3652323;-50
2022/02/21 08:33:04;;;;;;;;;78.67;57.67;;;;;6.75;97.60;98535.34;6312360;20;3649384;-53
2022/02/21 08:35:34;;;;;;;;;72.67;54.33;;;;;6.56;98.41;98524.16;6314118;20;3632544;-49
2022/02/21 08:38:04;;;;;;;;;73.67;53.33;;;;;6.22;98.69;98520.97;6312633;20;3646145;-54
2022/02/21 08:40:34;;;;;;;;;70.33;52.00;;;;;6.40;98.22;98521.63;6308715;20;3640895;-52
2022/02/21 08:43:03;;;;;;;;;73.00;50.67;;;;;6.90;96.96;98522.84;6313330;20;3655464;-53
2022/02/21 08:45:33;;;;;;;;;66.00;52.00;;;;;6.71;96.27;98520.50;6278493;20;3616914;-54
2022/02/21 08:48:03;;;;;;;;;69.67;51.67;;;;;6.34;97.81;98514.84;6310646;20;3635676;-52
2022/02/21 08:50:33;;;;;;;;;57.67;44.67;;;;;6.69;96.83;98506.41;6312086;20;2881586;-50
2022/02/21 08:53:02;;;;;;;;;65.00;49.67;;;;;7.02;96.01;98506.00;6312837;20;2874367;-54
2022/02/21 08:55:32;;;;;;;;;69.67;52.33;;;;;7.09;95.27;98514.47;6311829;20;3635706;-48
2022/02/21 08:58:01;;;;;;;;;60.67;49.00;;;;;6.93;95.22;98511.97;6310756;20;2868047;-49
2022/02/21 09:00:31;;;;;;;;;63.67;44.00;;;;;7.09;94.88;98505.63;6307060;20;3638826;-52
2022/02/21 09:03:01;;;;;;;;;64.33;47.00;;;;;7.37;93.96;98517.97;6312725;20;3648165;-51
2022/02/21 09:05:36;;;;;;;;;64.33;47.33;;;;;7.34;93.01;98510.16;6312310;20;3627476;-53
2022/02/21 09:08:06;;;;;;;;;64.00;45.33;;;;;7.29;93.44;98512.28;6310324;20;3642166;-53
2022/02/21 09:10:36;;;;;;;;;60.33;43.00;;;;;7.55;92.32;98506.03;6313106;20;2863856;-51
2022/02/21 09:13:05;;;;;;;;;58.67;46.33;;;;;7.58;92.22;98500.50;6308430;20;3609679;-50
2022/02/21 09:15:34;;;;;;;;;60.00;43.50;;;;;7.52;91.59;98506.25;6312668;20;2876342;-56
2022/02/21 09:18:05;;;;;;;;;55.00;41.33;;;;;7.48;91.64;98496.75;6279452;20;2867087;-54
2022/02/21 09:20:36;;;;;;;;;56.00;39.00;;;;;7.68;91.08;98493.53;6308811;20;2874352;-54
2022/02/21 09:23:05;;;;;;;;;58.00;43.50;;;;;7.81;90.63;98482.03;6310377;20;2840952;-52
2022/02/21 09:25:41;;;;;;;;;60.00;46.00;;;;;7.79;90.91;98478.59;6280528;20;2881610;-54
2022/02/21 09:28:10;;;;;;;;;58.67;44.33;;;;;7.86;89.87;98495.91;6309080;20;2868147;-55
2022/02/21 09:30:40;;;;;;;;;62.33;47.00;;;;;7.66;90.25;98492.81;6312697;20;3631505;-52
2022/02/21 09:33:10;;;;;;;;;63.33;45.33;;;;;7.85;89.49;98497.75;6311144;20;3631650;-55
2022/02/21 09:35:39;;;;;;;;;66.33;48.00;;;;;7.87;89.56;98503.84;6310731;20;3629939;-53
2022/02/21 09:38:09;;;;;;;;;67.67;46.33;;;;;7.88;90.05;98515.38;6309059;20;3635711;-54
2022/02/21 09:40:42;;;;;;;;;59.67;47.67;;;;;7.63;90.66;98517.03;6308406;20;3616906;-53
2022/02/21 09:43:15;;;;;;;;;59.33;44.00;;;;;7.29;90.83;98509.63;6312067;20;3604397;-55
2022/02/21 09:45:45;;;;;;;;;62.00;46.00;;;;;7.81;90.08;98511.41;6309962;20;2888854;-54
2022/02/21 09:48:16;;;;;;;;;60.33;47.00;;;;;7.56;90.23;98512.25;6311478;20;2871147;-56
2022/02/21 09:50:50;;;;;;;;;66.33;50.33;;;;;7.57;90.61;98506.78;6309019;20;3646082;-54
2022/02/21 09:53:20;;;;;;;;;59.00;45.33;;;;;7.67;91.73;98497.19;6281113;20;2882033;-54
2022/02/21 09:55:50;;;;;;;;;63.00;50.00;;;;;7.85;90.10;98489.72;6316140;20;3634813;-54
2022/02/21 09:58:19;;;;;;;;;50.50;39.00;;;;;7.98;89.04;98500.41;6314116;20;2864254;-54
2022/02/21 10:00:50;;;;;;;;;64.00;46.00;;;;;8.08;88.10;98490.78;6284288;20;3630552;-53
2022/02/21 10:03:39;;;;;;;;;54.67;43.00;;;;;7.98;88.42;98462.13;6313958;20;2852401;-53
2022/02/21 10:06:25;;;;;;;;;57.00;42.00;;;;;7.71;90.57;98457.75;6315085;20;2808592;-53
2022/02/21 10:09:06;;;;;;;;;57.67;42.33;;;;;8.41;88.00;98459.09;6284680;20;2870321;-55
2022/02/21 10:11:48;;;;;;;;;57.00;45.00;;;;;8.39;88.37;98452.97;6312887;20;3624188;-56
2022/02/21 10:14:23;;;;;;;;;55.67;41.33;;;;;8.59;87.92;98448.88;6316780;20;2861866;-56
2022/02/21 10:17:02;;;;;;;;;60.00;46.00;;;;;8.07;88.17;98458.81;6312947;20;3614897;-54
2022/02/21 10:19:38;;;;;;;;;51.50;41.00;;;;;8.24;87.65;98462.94;6313329;20;2857962;-54
2022/02/21 10:22:10;;;;;;;;;52.33;39.00;;;;;8.56;86.84;98472.22;6283392;20;3620046;-55
2022/02/21 10:24:45;;;;;;;;;59.33;45.67;;;;;8.42;87.15;98468.81;6311967;20;3634583;-52
2022/02/21 10:27:26;;;;;;;;;62.33;47.33;;;;;8.74;86.18;98472.69;6314975;20;3632532;-52
2022/02/21 10:30:01;;;;;;;;;63.67;48.33;;;;;8.40;87.11;98468.94;6313893;20;3631754;-54
2022/02/21 10:32:51;;;;;;;;;60.33;44.67;;;;;8.40;87.40;98458.25;6315925;20;3635727;-50
2022/02/21 10:35:26;;;;;;;;;61.00;43.33;;;;;8.51;86.07;98452.13;6316123;20;2880536;-52
2022/02/21 10:38:03;;;;;;;;;56.33;43.33;;;;;8.53;86.29;98445.69;6316118;20;2862787;-49
2022/02/21 10:40:39;;;;;;;;;57.33;44.67;;;;;8.51;86.37;98436.91;6312985;20;2877393;-56
2022/02/21 10:43:18;;;;;;;;;56.33;43.67;;;;;8.73;84.71;98432.66;6315138;20;3628461;-54
2022/02/21 10:45:48;;;;;;;;;56.00;42.00;;;;;9.13;84.93;98429.66;6313006;20;3620047;-55
2022/02/21 10:48:23;;;;;;;;;54.00;43.00;;;;;9.14;83.55;98424.19;6315943;20;2852392;-54
2022/02/21 10:51:00;;;;;;;;;43.50;36.00;;;;;9.01;84.13;98420.75;6311552;20;2500256;-53
2022/02/21 10:53:49;;;;;;;;;60.00;44.00;;;;;9.82;82.12;98417.16;6283171;20;2879435;-55
2022/02/21 10:56:21;;;;;;;;;59.33;42.67;;;;;9.67;81.83;98407.63;6284293;20;2862885;-55
2022/02/21 10:58:50;;;;;;;;;50.50;42.00;;;;;9.25;82.02;98401.09;6313172;20;2848168;-55
2022/02/21 11:01:20;;;;;;;;;54.33;39.33;;;;;9.61;81.18;98400.06;6283939;20;3618969;-55
2022/02/21 11:03:50;;;;;;;;;54.67;39.00;;;;;9.11;82.41;98386.94;6312657;20;2863794;-56
2022/02/21 11:06:19;;;;;;;;;51.50;42.00;;;;;9.38;81.90;98392.00;6314368;20;2847134;-55
2022/02/21 11:08:48;;;;;;;;;43.00;39.50;;;;;9.71;80.80;98390.31;6280525;20;2842526;-56
2022/02/21 11:11:21;;;;;;;;;52.50;40.00;;;;;9.65;81.07;98394.34;6280094;20;2842981;-48
2022/02/21 11:13:51;;;;;;;;;51.00;38.67;;;;;9.75;80.67;98375.72;6281034;20;2857612;-47
2022/02/21 11:16:21;;;;;;;;;48.33;40.67;;;;;9.68;81.14;98379.84;6310177;20;2849204;-45
2022/02/21 11:18:50;;;;;;;;;48.67;40.33;;;;;9.40;81.34;98376.66;6315361;20;3589846;-43